createdAt,value
2017-04-16T00:00:18.711Z,979.58
2017-04-16T00:01:28.959Z,979.57
2017-04-16T00:02:39.208Z,979.57
2017-04-16T00:03:49.603Z,979.56
2017-04-16T00:04:59.852Z,979.59
2017-04-16T00:06:10.111Z,979.59
2017-04-16T00:07:20.359Z,979.62
2017-04-16T00:08:30.614Z,979.62
2017-04-16T00:09:41.164Z,979.57
2017-04-16T00:10:51.419Z,979.62
2017-04-16T00:12:01.668Z,979.63
2017-04-16T00:13:11.925Z,979.65
2017-04-16T00:14:22.174Z,979.65
2017-04-16T00:16:46.041Z,979.68
2017-04-16T00:17:56.295Z,979.71
2017-04-16T00:19:06.553Z,979.72
2017-04-16T00:20:16.804Z,979.73
2017-04-16T00:21:27.424Z,979.77
2017-04-16T00:22:37.738Z,979.78
2017-04-16T00:23:47.851Z,979.81
2017-04-16T00:24:58.136Z,979.79
2017-04-16T00:26:08.076Z,979.8
2017-04-16T00:27:18.336Z,979.85
2017-04-16T00:28:28.593Z,979.82
2017-04-16T00:29:38.847Z,979.87
2017-04-16T00:30:49.109Z,979.84
2017-04-16T00:31:59.360Z,979.83
2017-04-16T00:33:09.608Z,979.82
2017-04-16T00:34:19.862Z,979.85
2017-04-16T00:35:29.800Z,979.86
2017-04-16T00:36:40.050Z,979.9
2017-04-16T00:37:50.301Z,979.86
2017-04-16T00:39:00.556Z,979.82
2017-04-16T00:40:10.815Z,979.86
2017-04-16T00:41:21.073Z,979.85
2017-04-16T00:42:31.330Z,979.85
2017-04-16T00:43:41.581Z,979.88
2017-04-16T00:44:51.836Z,979.86
2017-04-16T00:46:02.093Z,979.88
2017-04-16T00:47:12.352Z,979.86
2017-04-16T00:48:22.613Z,979.89
2017-04-16T00:49:32.871Z,979.9
2017-04-16T00:50:43.120Z,979.89
2017-04-16T00:51:53.432Z,979.9
2017-04-16T00:53:03.687Z,979.88
2017-04-16T00:54:13.937Z,979.87
2017-04-16T00:55:24.198Z,979.88
2017-04-16T00:56:34.444Z,979.89
2017-04-16T00:57:44.693Z,979.86
2017-04-16T00:58:54.950Z,979.86
2017-04-16T01:00:05.215Z,979.91
2017-04-16T01:01:15.475Z,979.85
2017-04-16T01:02:25.741Z,979.91
2017-04-16T01:03:35.990Z,979.84
2017-04-16T01:04:46.249Z,979.85
2017-04-16T01:05:56.504Z,979.84
2017-04-16T01:07:06.753Z,979.86
2017-04-16T01:08:17.013Z,979.91
2017-04-16T01:09:27.265Z,979.89
2017-04-16T01:10:37.204Z,979.87
2017-04-16T01:11:47.459Z,979.89
2017-04-16T01:12:57.708Z,979.9
2017-04-16T01:14:07.955Z,979.91
2017-04-16T01:15:18.063Z,979.9
2017-04-16T01:16:28.008Z,979.88
2017-04-16T01:17:38.256Z,979.9
2017-04-16T01:18:48.517Z,979.89
2017-04-16T01:19:58.765Z,979.85
2017-04-16T01:21:09.020Z,979.89
2017-04-16T01:22:19.281Z,979.88
2017-04-16T01:23:29.543Z,979.86
2017-04-16T01:24:39.797Z,979.86
2017-04-16T01:25:50.050Z,979.83
2017-04-16T01:27:00.302Z,979.85
2017-04-16T01:28:10.558Z,979.89
2017-04-16T01:29:20.810Z,979.93
2017-04-16T01:30:31.068Z,979.92
2017-04-16T01:31:41.323Z,979.92
2017-04-16T01:32:51.569Z,979.89
2017-04-16T01:34:01.506Z,979.92
2017-04-16T01:35:11.759Z,979.97
2017-04-16T01:36:22.011Z,979.91
2017-04-16T01:37:32.274Z,979.92
2017-04-16T01:38:42.531Z,979.91
2017-04-16T01:39:52.158Z,979.93
2017-04-16T01:41:02.405Z,979.95
2017-04-16T01:42:12.344Z,979.95
2017-04-16T01:43:22.642Z,979.97
2017-04-16T01:44:32.893Z,980
2017-04-16T01:45:43.262Z,980.01
2017-04-16T01:46:52.882Z,979.99
2017-04-16T01:48:03.223Z,979.98
2017-04-16T01:49:13.216Z,979.98
2017-04-16T01:50:23.467Z,979.96
2017-04-16T01:51:33.712Z,979.98
2017-04-16T01:52:43.646Z,979.98
2017-04-16T01:53:53.587Z,979.97
2017-04-16T01:55:03.842Z,980.04
2017-04-16T01:56:14.091Z,980
2017-04-16T01:57:24.347Z,979.99
2017-04-16T01:58:34.288Z,980
2017-04-16T01:59:44.573Z,979.99
2017-04-16T02:00:54.838Z,980
2017-04-16T02:02:05.094Z,980
2017-04-16T02:03:15.343Z,980.01
2017-04-16T02:04:25.594Z,980.08
2017-04-16T02:05:35.845Z,980.07
2017-04-16T02:06:46.242Z,980.07
2017-04-16T02:07:56.177Z,980.07
2017-04-16T02:09:06.432Z,980.09
2017-04-16T02:10:16.696Z,980.11
2017-04-16T02:11:26.947Z,980.1
2017-04-16T02:12:39.082Z,980.12
2017-04-16T02:13:49.125Z,980.14
2017-04-16T02:14:59.388Z,980.13
2017-04-16T02:16:09.646Z,980.14
2017-04-16T02:17:19.897Z,980.15
2017-04-16T02:18:32.348Z,980.15
2017-04-16T02:19:42.607Z,980.14
2017-04-16T02:20:52.862Z,980.12
2017-04-16T02:22:03.113Z,980.16
2017-04-16T02:23:13.369Z,980.15
2017-04-16T02:24:25.305Z,980.14
2017-04-16T02:25:35.561Z,980.15
2017-04-16T02:26:45.812Z,980.2
2017-04-16T02:27:56.063Z,980.22
2017-04-16T02:29:06.320Z,980.2
2017-04-16T02:30:16.582Z,980.2
2017-04-16T02:31:26.862Z,980.23
2017-04-16T02:32:37.115Z,980.21
2017-04-16T02:33:47.373Z,980.24
2017-04-16T02:34:57.630Z,980.24
2017-04-16T02:36:07.909Z,980.23
2017-04-16T02:37:18.177Z,980.28
2017-04-16T02:38:28.307Z,980.21
2017-04-16T02:39:38.583Z,980.27
2017-04-16T02:40:48.750Z,980.26
2017-04-16T02:41:59.171Z,980.26
2017-04-16T02:43:09.419Z,980.24
2017-04-16T02:44:19.674Z,980.24
2017-04-16T02:45:29.934Z,980.22
2017-04-16T02:46:40.192Z,980.22
2017-04-16T02:47:50.441Z,980.27
2017-04-16T02:49:00.710Z,980.25
2017-04-16T02:50:10.964Z,980.25
2017-04-16T02:51:21.220Z,980.25
2017-04-16T02:52:31.476Z,980.26
2017-04-16T02:53:41.747Z,980.3
2017-04-16T02:54:51.998Z,980.28
2017-04-16T02:56:02.249Z,980.28
2017-04-16T02:57:12.191Z,980.3
2017-04-16T02:58:22.134Z,980.25
2017-04-16T02:59:32.388Z,980.26
2017-04-16T03:00:42.644Z,980.28
2017-04-16T03:01:52.906Z,980.28
2017-04-16T03:03:03.159Z,980.26
2017-04-16T03:04:13.406Z,980.27
2017-04-16T03:05:23.666Z,980.27
2017-04-16T03:06:33.601Z,980.25
2017-04-16T03:07:43.863Z,980.22
2017-04-16T03:08:54.221Z,980.27
2017-04-16T03:10:04.470Z,980.23
2017-04-16T03:11:14.722Z,980.26
2017-04-16T03:12:24.662Z,980.22
2017-04-16T03:13:34.923Z,980.23
2017-04-16T03:14:45.289Z,980.24
2017-04-16T03:15:55.538Z,980.26
2017-04-16T03:17:05.789Z,980.22
2017-04-16T03:18:16.046Z,980.23
2017-04-16T03:19:26.299Z,980.23
2017-04-16T03:20:36.558Z,980.23
2017-04-16T03:21:46.816Z,980.25
2017-04-16T03:22:57.067Z,980.26
2017-04-16T03:24:07.324Z,980.26
2017-04-16T03:25:17.586Z,980.26
2017-04-16T03:26:27.842Z,980.3
2017-04-16T03:27:38.091Z,980.24
2017-04-16T03:28:48.344Z,980.28
2017-04-16T03:29:58.603Z,980.3
2017-04-16T03:31:08.542Z,980.28
2017-04-16T03:32:18.791Z,980.28
2017-04-16T03:33:29.038Z,980.35
2017-04-16T03:34:39.308Z,980.29
2017-04-16T03:35:49.567Z,980.34
2017-04-16T03:36:59.837Z,980.32
2017-04-16T03:38:10.117Z,980.32
2017-04-16T03:39:20.062Z,980.28
2017-04-16T03:40:30.335Z,980.25
2017-04-16T03:41:40.324Z,980.3
2017-04-16T03:42:50.629Z,980.31
2017-04-16T03:44:00.882Z,980.27
2017-04-16T03:45:11.149Z,980.29
2017-04-16T03:46:21.092Z,980.34
2017-04-16T03:47:31.340Z,980.33
2017-04-16T03:48:41.595Z,980.33
2017-04-16T03:49:51.846Z,980.34
2017-04-16T03:51:01.474Z,980.36
2017-04-16T03:52:11.719Z,980.36
2017-04-16T03:53:21.970Z,980.38
2017-04-16T03:54:32.231Z,980.39
2017-04-16T03:55:42.489Z,980.41
2017-04-16T03:56:52.744Z,980.42
2017-04-16T03:58:03.017Z,980.38
2017-04-16T03:59:13.284Z,980.4
2017-04-16T04:00:23.540Z,980.38
2017-04-16T04:01:33.787Z,980.42
2017-04-16T04:02:44.037Z,980.44
2017-04-16T04:03:53.982Z,980.41
2017-04-16T04:05:04.238Z,980.44
2017-04-16T04:06:14.487Z,980.41
2017-04-16T04:07:24.425Z,980.47
2017-04-16T04:08:34.362Z,980.45
2017-04-16T04:09:44.630Z,980.47
2017-04-16T04:10:54.885Z,980.49
2017-04-16T04:12:05.149Z,980.53
2017-04-16T04:13:15.260Z,980.5
2017-04-16T04:14:25.873Z,980.51
2017-04-16T04:15:36.164Z,980.49
2017-04-16T04:16:46.269Z,980.52
2017-04-16T04:17:56.518Z,980.53
2017-04-16T04:19:06.795Z,980.49
2017-04-16T04:20:17.055Z,980.55
2017-04-16T04:21:27.303Z,980.56
2017-04-16T04:22:37.557Z,980.57
2017-04-16T04:23:47.815Z,980.54
2017-04-16T04:24:57.760Z,980.57
2017-04-16T04:26:08.009Z,980.58
2017-04-16T04:27:18.259Z,980.64
2017-04-16T04:28:28.517Z,980.63
2017-04-16T04:29:38.774Z,980.65
2017-04-16T04:30:49.034Z,980.64
2017-04-16T04:31:59.279Z,980.65
2017-04-16T04:33:09.216Z,980.68
2017-04-16T04:34:19.470Z,980.67
2017-04-16T04:35:29.404Z,980.64
2017-04-16T04:36:39.657Z,980.69
2017-04-16T04:37:49.909Z,980.72
2017-04-16T04:38:59.854Z,980.67
2017-04-16T04:40:10.106Z,980.72
2017-04-16T04:41:20.043Z,980.73
2017-04-16T04:42:30.298Z,980.72
2017-04-16T04:43:40.560Z,980.7
2017-04-16T04:44:50.820Z,980.74
2017-04-16T04:46:01.076Z,980.75
2017-04-16T04:47:11.011Z,980.82
2017-04-16T04:48:21.411Z,980.78
2017-04-16T04:49:31.663Z,980.76
2017-04-16T04:50:41.613Z,980.83
2017-04-16T04:51:51.615Z,980.81
2017-04-16T04:53:01.942Z,980.82
2017-04-16T04:54:12.196Z,980.83
2017-04-16T04:55:22.163Z,980.81
2017-04-16T04:56:32.411Z,980.83
2017-04-16T04:57:42.343Z,980.89
2017-04-16T04:58:52.601Z,980.9
2017-04-16T05:00:02.857Z,980.9
2017-04-16T05:01:12.796Z,980.93
2017-04-16T05:02:23.052Z,980.91
2017-04-16T05:03:33.299Z,980.92
2017-04-16T05:04:43.555Z,980.95
2017-04-16T05:05:53.814Z,980.97
2017-04-16T05:07:04.072Z,980.94
2017-04-16T05:08:14.331Z,980.95
2017-04-16T05:09:24.276Z,980.99
2017-04-16T05:10:34.522Z,980.95
2017-04-16T05:11:44.772Z,981.05
2017-04-16T05:12:55.030Z,981.06
2017-04-16T05:14:04.980Z,981.01
2017-04-16T05:15:15.241Z,981.03
2017-04-16T05:16:25.495Z,980.98
2017-04-16T05:17:35.755Z,981.01
2017-04-16T05:18:46.023Z,981.05
2017-04-16T05:19:55.965Z,981.04
2017-04-16T05:21:06.553Z,981.05
2017-04-16T05:22:16.807Z,981.07
2017-04-16T05:23:27.158Z,981.07
2017-04-16T05:24:37.414Z,981.08
2017-04-16T05:25:47.671Z,981.09
2017-04-16T05:26:57.920Z,981.11
2017-04-16T05:28:08.173Z,981.1
2017-04-16T05:29:18.110Z,981.11
2017-04-16T05:30:28.357Z,981.17
2017-04-16T05:31:38.600Z,981.2
2017-04-16T05:32:48.850Z,981.15
2017-04-16T05:33:59.109Z,981.2
2017-04-16T05:35:09.049Z,981.21
2017-04-16T05:36:19.306Z,981.22
2017-04-16T05:37:29.246Z,981.21
2017-04-16T05:38:39.513Z,981.23
2017-04-16T05:39:49.771Z,981.26
2017-04-16T05:41:00.034Z,981.27
2017-04-16T05:42:10.283Z,981.28
2017-04-16T05:43:20.535Z,981.29
2017-04-16T05:44:30.795Z,981.31
2017-04-16T05:45:41.051Z,981.33
2017-04-16T05:46:51.302Z,981.34
2017-04-16T05:48:00.925Z,981.36
2017-04-16T05:49:10.865Z,981.36
2017-04-16T05:50:21.124Z,981.4
2017-04-16T05:51:31.463Z,981.39
2017-04-16T05:52:41.746Z,981.39
2017-04-16T05:53:52.140Z,981.38
2017-04-16T05:55:02.395Z,981.4
2017-04-16T05:56:12.653Z,981.43
2017-04-16T05:57:22.595Z,981.42
2017-04-16T05:58:32.857Z,981.45
2017-04-16T05:59:43.128Z,981.42
2017-04-16T06:00:53.379Z,981.45
2017-04-16T06:02:03.629Z,981.46
2017-04-16T06:03:13.887Z,981.51
2017-04-16T06:04:24.142Z,981.5
2017-04-16T06:05:34.386Z,981.52
2017-04-16T06:06:44.645Z,981.52
2017-04-16T06:07:54.906Z,981.52
2017-04-16T06:09:05.170Z,981.55
2017-04-16T06:10:15.434Z,981.57
2017-04-16T06:11:25.687Z,981.59
2017-04-16T06:12:35.945Z,981.62
2017-04-16T06:13:46.198Z,981.63
2017-04-16T06:14:56.455Z,981.63
2017-04-16T06:16:06.395Z,981.65
2017-04-16T06:17:16.647Z,981.66
2017-04-16T06:18:26.897Z,981.66
2017-04-16T06:19:36.836Z,981.68
2017-04-16T06:20:47.090Z,981.64
2017-04-16T06:21:57.344Z,981.7
2017-04-16T06:23:07.594Z,981.72
2017-04-16T06:24:17.853Z,981.74
2017-04-16T06:25:28.110Z,981.78
2017-04-16T06:26:38.362Z,981.77
2017-04-16T06:27:48.618Z,981.75
2017-04-16T06:28:58.884Z,981.74
2017-04-16T06:30:08.829Z,981.74
2017-04-16T06:31:19.084Z,981.8
2017-04-16T06:32:29.334Z,981.8
2017-04-16T06:33:39.279Z,981.8
2017-04-16T06:34:49.534Z,981.8
2017-04-16T06:35:59.801Z,981.82
2017-04-16T06:37:10.165Z,981.77
2017-04-16T06:38:20.726Z,981.78
2017-04-16T06:39:31.028Z,981.78
2017-04-16T06:40:41.288Z,981.75
2017-04-16T06:41:51.543Z,981.79
2017-04-16T06:43:01.493Z,981.81
2017-04-16T06:44:11.753Z,981.79
2017-04-16T06:45:21.705Z,981.78
2017-04-16T06:46:31.956Z,981.78
2017-04-16T06:47:42.215Z,981.76
2017-04-16T06:48:52.468Z,981.79
2017-04-16T06:50:02.722Z,981.79
2017-04-16T06:51:12.664Z,981.85
2017-04-16T06:52:22.924Z,981.81
2017-04-16T06:53:33.186Z,981.81
2017-04-16T06:54:43.462Z,981.74
2017-04-16T06:55:53.718Z,981.81
2017-04-16T06:57:03.993Z,981.8
2017-04-16T06:58:14.252Z,981.75
2017-04-16T06:59:24.508Z,981.76
2017-04-16T07:00:34.763Z,981.78
2017-04-16T07:01:45.025Z,981.79
2017-04-16T07:02:55.286Z,981.81
2017-04-16T07:04:05.543Z,981.82
2017-04-16T07:05:15.808Z,981.86
2017-04-16T07:06:26.064Z,981.84
2017-04-16T07:07:36.324Z,981.79
2017-04-16T07:08:46.599Z,981.84
2017-04-16T07:09:56.876Z,981.85
2017-04-16T07:11:07.136Z,981.82
2017-04-16T07:12:17.390Z,981.89
2017-04-16T07:13:27.332Z,981.85
2017-04-16T07:14:37.595Z,981.88
2017-04-16T07:15:48.074Z,981.89
2017-04-16T07:16:58.465Z,981.85
2017-04-16T07:18:08.722Z,981.87
2017-04-16T07:19:18.983Z,981.87
2017-04-16T07:20:29.240Z,981.88
2017-04-16T07:21:39.497Z,981.91
2017-04-16T07:22:49.750Z,981.87
2017-04-16T07:24:00.006Z,981.87
2017-04-16T07:25:09.943Z,981.89
2017-04-16T07:26:19.885Z,981.91
2017-04-16T07:27:30.138Z,981.88
2017-04-16T07:28:40.396Z,981.95
2017-04-16T07:29:50.659Z,981.91
2017-04-16T07:31:00.919Z,981.9
2017-04-16T07:32:10.864Z,981.86
2017-04-16T07:33:20.807Z,981.93
2017-04-16T07:34:31.074Z,981.89
2017-04-16T07:35:41.326Z,981.92
2017-04-16T07:36:51.589Z,981.9
2017-04-16T07:38:01.846Z,981.9
2017-04-16T07:39:12.113Z,981.93
2017-04-16T07:40:22.369Z,981.95
2017-04-16T07:41:32.629Z,981.94
2017-04-16T07:42:42.884Z,981.97
2017-04-16T07:43:53.150Z,981.97
2017-04-16T07:45:03.404Z,981.96
2017-04-16T07:46:13.352Z,981.99
2017-04-16T07:47:23.614Z,982.01
2017-04-16T07:48:33.872Z,981.99
2017-04-16T07:49:44.132Z,981.93
2017-04-16T07:50:54.546Z,981.93
2017-04-16T07:52:04.812Z,981.98
2017-04-16T07:53:15.079Z,981.96
2017-04-16T07:54:25.281Z,981.99
2017-04-16T07:55:35.555Z,981.98
2017-04-16T07:56:45.811Z,982
2017-04-16T07:57:56.198Z,982
2017-04-16T07:59:06.462Z,982.02
2017-04-16T08:00:16.728Z,982.04
2017-04-16T08:01:26.988Z,982.04
2017-04-16T08:02:37.237Z,982.03
2017-04-16T08:03:47.502Z,982
2017-04-16T08:04:57.446Z,982.04
2017-04-16T08:06:07.706Z,982.03
2017-04-16T08:07:17.651Z,982
2017-04-16T08:08:27.289Z,982.01
2017-04-16T08:09:37.551Z,982.05
2017-04-16T08:10:47.806Z,982.1
2017-04-16T08:11:58.060Z,982.13
2017-04-16T08:13:08.011Z,982.16
2017-04-16T08:14:18.276Z,982.21
2017-04-16T08:15:28.535Z,982.16
2017-04-16T08:16:38.797Z,982.19
2017-04-16T08:17:49.058Z,982.21
2017-04-16T08:18:59.330Z,982.17
2017-04-16T08:20:09.583Z,982.23
2017-04-16T08:21:19.843Z,982.16
2017-04-16T08:22:30.098Z,982.18
2017-04-16T08:23:40.354Z,982.19
2017-04-16T08:24:50.621Z,982.22
2017-04-16T08:26:00.878Z,982.19
2017-04-16T08:27:11.144Z,982.18
2017-04-16T08:28:21.088Z,982.22
2017-04-16T08:29:31.372Z,982.23
2017-04-16T08:30:41.626Z,982.25
2017-04-16T08:31:51.880Z,982.22
2017-04-16T08:33:02.145Z,982.27
2017-04-16T08:34:12.408Z,982.2
2017-04-16T08:35:22.375Z,982.15
2017-04-16T08:36:32.905Z,982.18
2017-04-16T08:37:43.376Z,982.18
2017-04-16T08:38:53.315Z,982.2
2017-04-16T08:40:03.579Z,982.16
2017-04-16T08:41:13.843Z,982.23
2017-04-16T08:42:24.103Z,982.15
2017-04-16T08:43:34.364Z,982.17
2017-04-16T08:44:44.634Z,982.18
2017-04-16T08:45:54.898Z,982.18
2017-04-16T08:47:05.156Z,982.17
2017-04-16T08:48:15.421Z,982.18
2017-04-16T08:49:25.375Z,982.12
2017-04-16T08:50:35.637Z,982.11
2017-04-16T08:51:45.898Z,982.16
2017-04-16T08:52:56.190Z,982.21
2017-04-16T08:54:06.449Z,982.23
2017-04-16T08:55:16.094Z,982.25
2017-04-16T08:56:26.044Z,982.25
2017-04-16T08:57:36.299Z,982.22
2017-04-16T08:58:46.554Z,982.25
2017-04-16T08:59:56.820Z,982.29
2017-04-16T09:01:06.772Z,982.28
2017-04-16T09:02:16.722Z,982.26
2017-04-16T09:03:26.988Z,982.28
2017-04-16T09:04:37.257Z,982.29
2017-04-16T09:05:47.202Z,982.35
2017-04-16T09:06:57.459Z,982.36
2017-04-16T09:08:07.724Z,982.35
2017-04-16T09:09:17.988Z,982.45
2017-04-16T09:10:28.257Z,982.48
2017-04-16T09:11:38.516Z,982.43
2017-04-16T09:12:49.017Z,982.44
2017-04-16T09:13:59.284Z,982.41
2017-04-16T09:15:09.549Z,982.42
2017-04-16T09:16:19.807Z,982.46
2017-04-16T09:17:30.073Z,982.39
2017-04-16T09:18:40.339Z,982.38
2017-04-16T09:19:50.609Z,982.34
2017-04-16T09:21:00.873Z,982.33
2017-04-16T09:22:10.815Z,982.33
2017-04-16T09:23:20.763Z,982.32
2017-04-16T09:24:31.028Z,982.32
2017-04-16T09:25:41.292Z,982.33
2017-04-16T09:26:51.552Z,982.29
2017-04-16T09:28:01.813Z,982.3
2017-04-16T09:29:11.766Z,982.25
2017-04-16T09:30:22.026Z,982.26
2017-04-16T09:31:32.289Z,982.25
2017-04-16T09:32:42.547Z,982.26
2017-04-16T09:33:52.821Z,982.33
2017-04-16T09:35:03.084Z,982.3
2017-04-16T09:36:13.339Z,982.33
2017-04-16T09:37:23.611Z,982.34
2017-04-16T09:38:33.870Z,982.3
2017-04-16T09:39:44.140Z,982.3
2017-04-16T09:40:54.400Z,982.32
2017-04-16T09:42:04.691Z,982.32
2017-04-16T09:43:14.640Z,982.32
2017-04-16T09:44:24.893Z,982.28
2017-04-16T09:45:35.150Z,982.24
2017-04-16T09:46:45.403Z,982.27
2017-04-16T09:47:55.668Z,982.3
2017-04-16T09:49:05.965Z,982.3
2017-04-16T09:50:16.241Z,982.36
2017-04-16T09:51:26.184Z,982.48
2017-04-16T09:52:36.443Z,982.53
2017-04-16T09:53:46.710Z,982.7
2017-04-16T09:54:56.972Z,982.77
2017-04-16T09:56:07.226Z,982.76
2017-04-16T09:57:17.489Z,982.68
2017-04-16T09:58:27.436Z,982.67
2017-04-16T09:59:37.709Z,982.66
2017-04-16T10:00:47.971Z,982.58
2017-04-16T10:01:57.916Z,982.57
2017-04-16T10:03:07.874Z,982.55
2017-04-16T10:04:18.136Z,982.46
2017-04-16T10:05:28.395Z,982.4
2017-04-16T10:06:38.655Z,982.36
2017-04-16T10:07:48.604Z,982.3
2017-04-16T10:08:58.625Z,982.28
2017-04-16T10:10:08.914Z,982.23
2017-04-16T10:11:19.167Z,982.28
2017-04-16T10:12:29.438Z,982.25
2017-04-16T10:13:39.712Z,982.3
2017-04-16T10:14:49.971Z,982.29
2017-04-16T10:16:00.244Z,982.28
2017-04-16T10:17:10.502Z,982.26
2017-04-16T10:18:20.454Z,982.21
2017-04-16T10:19:30.721Z,982.15
2017-04-16T10:20:41.001Z,982.15
2017-04-16T10:21:50.946Z,982.14
2017-04-16T10:23:01.211Z,982.16
2017-04-16T10:24:11.624Z,982.18
2017-04-16T10:25:21.886Z,982.13
2017-04-16T10:26:32.145Z,982.15
2017-04-16T10:27:42.401Z,982.14
2017-04-16T10:28:51.727Z,982.15
2017-04-16T10:30:01.986Z,982.13
2017-04-16T10:31:11.933Z,982.14
2017-04-16T10:32:22.194Z,982.15
2017-04-16T10:33:32.454Z,982.18
2017-04-16T10:34:42.735Z,982.16
2017-04-16T10:35:52.680Z,982.13
2017-04-16T10:37:02.931Z,982.11
2017-04-16T10:38:12.876Z,982.14
2017-04-16T10:39:23.162Z,982.18
2017-04-16T10:40:33.104Z,982.15
2017-04-16T10:41:43.365Z,982.16
2017-04-16T10:42:53.625Z,982.17
2017-04-16T10:44:03.895Z,982.16
2017-04-16T10:45:14.156Z,982.19
2017-04-16T10:46:24.419Z,982.21
2017-04-16T10:47:34.678Z,982.2
2017-04-16T10:48:44.943Z,982.25
2017-04-16T10:49:55.210Z,982.27
2017-04-16T10:51:05.469Z,982.25
2017-04-16T10:52:15.725Z,982.26
2017-04-16T10:53:25.985Z,982.28
2017-04-16T10:54:36.292Z,982.29
2017-04-16T10:55:46.355Z,982.29
2017-04-16T10:56:56.619Z,982.3
2017-04-16T10:58:06.893Z,982.32
2017-04-16T10:59:16.861Z,982.29
2017-04-16T11:00:27.126Z,982.32
2017-04-16T11:01:37.394Z,982.33
2017-04-16T11:02:47.653Z,982.38
2017-04-16T11:03:57.921Z,982.36
2017-04-16T11:05:08.190Z,982.45
2017-04-16T11:06:18.451Z,982.48
2017-04-16T11:07:28.712Z,982.53
2017-04-16T11:08:38.990Z,982.57
2017-04-16T11:09:49.250Z,982.64
2017-04-16T11:10:59.513Z,982.68
2017-04-16T11:12:09.768Z,982.57
2017-04-16T11:13:19.719Z,982.49
2017-04-16T11:14:29.981Z,982.61
2017-04-16T11:15:40.247Z,982.66
2017-04-16T11:16:50.503Z,982.62
2017-04-16T11:18:00.759Z,982.65
2017-04-16T11:19:10.708Z,982.71
2017-04-16T11:20:20.965Z,982.74
2017-04-16T11:21:31.225Z,982.68
2017-04-16T11:22:41.491Z,982.69
2017-04-16T11:23:52.009Z,982.66
2017-04-16T11:25:02.389Z,982.61
2017-04-16T11:26:12.651Z,982.63
2017-04-16T11:27:22.903Z,982.6
2017-04-16T11:28:33.383Z,982.55
2017-04-16T11:29:43.651Z,982.63
2017-04-16T11:30:53.910Z,982.65
2017-04-16T11:32:04.173Z,982.66
2017-04-16T11:33:14.435Z,982.69
2017-04-16T11:34:24.694Z,982.66
2017-04-16T11:35:34.645Z,982.7
2017-04-16T11:36:44.899Z,982.71
2017-04-16T11:37:55.153Z,982.68
2017-04-16T11:39:05.408Z,982.68
2017-04-16T11:40:15.670Z,982.66
2017-04-16T11:41:25.927Z,982.67
2017-04-16T11:42:36.186Z,982.62
2017-04-16T11:43:46.445Z,982.6
2017-04-16T11:44:56.700Z,982.6
2017-04-16T11:46:06.955Z,982.62
2017-04-16T11:47:16.897Z,982.62
2017-04-16T11:48:27.159Z,982.63
2017-04-16T11:49:37.440Z,982.63
2017-04-16T11:50:47.383Z,982.59
2017-04-16T11:51:57.630Z,982.56
2017-04-16T11:53:07.575Z,982.56
2017-04-16T11:54:17.825Z,982.6
2017-04-16T11:55:28.083Z,982.56
2017-04-16T11:56:38.336Z,982.55
2017-04-16T11:57:48.822Z,982.5
2017-04-16T11:58:59.410Z,982.5
2017-04-16T12:00:09.672Z,982.49
2017-04-16T12:01:20.133Z,982.57
2017-04-16T12:02:30.384Z,982.55
2017-04-16T12:03:40.647Z,982.54
2017-04-16T12:04:50.914Z,982.52
2017-04-16T12:06:01.233Z,982.53
2017-04-16T12:07:11.184Z,982.59
2017-04-16T12:08:21.445Z,982.53
2017-04-16T12:09:31.706Z,982.58
2017-04-16T12:10:41.663Z,982.58
2017-04-16T12:11:51.922Z,982.62
2017-04-16T12:13:02.181Z,982.56
2017-04-16T12:14:12.437Z,982.62
2017-04-16T12:15:22.696Z,982.64
2017-04-16T12:16:32.952Z,982.64
2017-04-16T12:17:43.209Z,982.69
2017-04-16T12:18:52.850Z,982.69
2017-04-16T12:20:03.109Z,982.69
2017-04-16T12:21:13.373Z,982.75
2017-04-16T12:22:23.316Z,982.75
2017-04-16T12:23:33.260Z,982.85
2017-04-16T12:24:43.523Z,982.83
2017-04-16T12:25:53.783Z,982.84
2017-04-16T12:27:03.730Z,982.8
2017-04-16T12:28:13.856Z,982.73
2017-04-16T12:29:23.802Z,982.68
2017-04-16T12:30:34.057Z,982.66
2017-04-16T12:31:44.427Z,982.64
2017-04-16T12:32:54.684Z,982.73
2017-04-16T12:34:05.027Z,982.71
2017-04-16T12:35:15.297Z,982.73
2017-04-16T12:36:25.550Z,982.74
2017-04-16T12:37:35.809Z,982.66
2017-04-16T12:38:46.070Z,982.74
2017-04-16T12:39:56.346Z,982.67
2017-04-16T12:41:06.604Z,982.67
2017-04-16T12:42:16.553Z,982.77
2017-04-16T12:43:26.812Z,982.76
2017-04-16T12:44:37.084Z,982.8
2017-04-16T12:45:47.352Z,982.71
2017-04-16T12:46:57.610Z,982.67
2017-04-16T12:48:07.553Z,982.7
2017-04-16T12:49:17.824Z,982.69
2017-04-16T12:50:28.096Z,982.7
2017-04-16T12:51:38.355Z,982.7
2017-04-16T12:52:48.612Z,982.66
2017-04-16T12:53:58.557Z,982.59
2017-04-16T12:55:08.817Z,982.57
2017-04-16T12:56:19.083Z,982.57
2017-04-16T12:57:29.344Z,982.56
2017-04-16T12:58:39.600Z,982.52
2017-04-16T12:59:49.545Z,982.56
2017-04-16T13:00:59.817Z,982.56
2017-04-16T13:02:09.763Z,982.56
2017-04-16T13:03:20.027Z,982.59
2017-04-16T13:04:29.979Z,982.57
2017-04-16T13:05:40.235Z,982.58
2017-04-16T13:06:50.179Z,982.55
2017-04-16T13:08:00.529Z,982.61
2017-04-16T13:09:10.787Z,982.59
2017-04-16T13:10:21.057Z,982.64
2017-04-16T13:11:31.020Z,982.66
2017-04-16T13:12:41.280Z,982.66
2017-04-16T13:13:51.546Z,982.65
2017-04-16T13:15:01.805Z,982.69
2017-04-16T13:16:12.069Z,982.72
2017-04-16T13:17:22.008Z,982.69
2017-04-16T13:18:32.265Z,982.68
2017-04-16T13:19:42.523Z,982.71
2017-04-16T13:20:52.469Z,982.68
2017-04-16T13:22:02.414Z,982.7
2017-04-16T13:23:12.669Z,982.69
2017-04-16T13:24:22.925Z,982.66
2017-04-16T13:25:33.193Z,982.57
2017-04-16T13:26:43.450Z,982.6
2017-04-16T13:27:53.711Z,982.55
2017-04-16T13:29:03.662Z,982.62
2017-04-16T13:30:13.962Z,982.65
2017-04-16T13:31:24.224Z,982.63
2017-04-16T13:32:34.477Z,982.57
2017-04-16T13:33:44.738Z,982.53
2017-04-16T13:34:54.695Z,982.52
2017-04-16T13:36:04.957Z,982.55
2017-04-16T13:37:15.217Z,982.55
2017-04-16T13:38:25.477Z,982.61
2017-04-16T13:39:36.053Z,982.62
2017-04-16T13:40:46.313Z,982.7
2017-04-16T13:41:56.263Z,982.81
2017-04-16T13:43:06.212Z,982.94
2017-04-16T13:44:16.473Z,982.96
2017-04-16T13:45:26.112Z,982.98
2017-04-16T13:46:36.367Z,982.85
2017-04-16T13:47:46.312Z,982.88
2017-04-16T13:48:56.256Z,982.82
2017-04-16T13:50:06.520Z,982.75
2017-04-16T13:51:16.783Z,982.78
2017-04-16T13:52:26.754Z,982.77
2017-04-16T13:53:37.014Z,982.72
2017-04-16T13:54:47.284Z,982.76
2017-04-16T13:55:57.544Z,982.75
2017-04-16T13:57:07.489Z,982.7
2017-04-16T13:58:17.751Z,982.68
2017-04-16T13:59:27.704Z,982.58
2017-04-16T14:00:37.964Z,982.47
2017-04-16T14:01:48.248Z,982.49
2017-04-16T14:02:58.514Z,982.47
2017-04-16T14:04:08.807Z,982.49
2017-04-16T14:05:19.069Z,982.54
2017-04-16T14:06:29.326Z,982.54
2017-04-16T14:07:39.621Z,982.54
2017-04-16T14:08:49.893Z,982.59
2017-04-16T14:10:00.160Z,982.56
2017-04-16T14:11:10.417Z,982.52
2017-04-16T14:12:20.805Z,982.57
2017-04-16T14:13:31.288Z,982.54
2017-04-16T14:14:41.233Z,982.6
2017-04-16T14:15:51.688Z,982.61
2017-04-16T14:17:01.944Z,982.58
2017-04-16T14:18:12.204Z,982.53
2017-04-16T14:19:22.471Z,982.58
2017-04-16T14:20:32.740Z,982.54
2017-04-16T14:21:43.002Z,982.57
2017-04-16T14:22:53.264Z,982.6
2017-04-16T14:24:03.216Z,982.59
2017-04-16T14:25:13.485Z,982.6
2017-04-16T14:26:23.434Z,982.61
2017-04-16T14:27:33.699Z,982.62
2017-04-16T14:28:43.965Z,982.64
2017-04-16T14:29:54.227Z,982.6
2017-04-16T14:31:04.487Z,982.61
2017-04-16T14:32:14.752Z,982.54
2017-04-16T14:33:25.008Z,982.5
2017-04-16T14:34:35.272Z,982.57
2017-04-16T14:35:45.527Z,982.61
2017-04-16T14:36:55.460Z,982.65
2017-04-16T14:38:05.408Z,982.66
2017-04-16T14:39:15.348Z,982.68
2017-04-16T14:40:25.296Z,982.66